Time;durP1;ratioP1;P1;durP2;ratioP2;P2;SDS_P1;SDS_P2;PMS_P1;PMS_P2;Temp;Humidity;BMP_temperature;BMP_pressure;BME280_temperature;BME280_humidity;BME280_pressure;Samples;Min_cycle;Max_cycle;Signal;HPM_P1;HPM_P2
2023/10/17 00:02:11;;;;;;;3.58;0.68;;;;;;;23.91;57.07;101582.91;5033223;28;20474;-48
2023/10/17 00:04:41;;;;;;;3.47;0.80;;;;;;;23.76;57.55;101574.72;5033911;28;20029;-51
2023/10/17 00:07:08;;;;;;;3.05;1.08;;;;;;;23.58;58.17;101575.28;5033654;28;20474;-51
2023/10/17 00:09:38;;;;;;;1.83;0.98;;;;;;;23.60;58.33;101573.94;5033364;28;20390;-51
2023/10/17 00:12:25;;;;;;;3.70;1.33;;;;;;;23.55;59.12;101579.38;5033289;28;20033;-51
2023/10/17 00:17:18;;;;;;;2.85;0.80;;;;;;;23.11;60.85;101570.94;5033500;28;20108;-51
2023/10/17 00:19:45;;;;;;;4.28;1.25;;;;;;;23.00;61.31;101563.81;5029328;28;20076;-51
2023/10/17 00:22:18;;;;;;;3.35;0.80;;;;;;;22.85;62.03;101565.41;5013197;28;20034;-50
2023/10/17 00:24:47;;;;;;;2.83;1.10;;;;;;;22.67;62.37;101561.28;5013651;28;20026;-50
2023/10/17 00:27:14;;;;;;;3.45;1.10;;;;;;;22.57;63.46;101554.97;5013500;28;20033;-49
2023/10/17 00:29:40;;;;;;;1.75;0.80;;;;;;;22.56;63.12;101553.34;5013533;28;20036;-48
2023/10/17 00:32:09;;;;;;;3.17;1.10;;;;;;;22.56;63.59;101553.34;5012928;28;20053;-50
2023/10/17 00:34:36;;;;;;;3.30;1.30;;;;;;;22.42;64.11;101542.09;5013416;28;20026;-51
2023/10/17 00:37:11;;;;;;;2.42;1.00;;;;;;;22.54;64.03;101539.13;5013227;28;20029;-51
2023/10/17 00:39:38;;;;;;;4.35;0.80;;;;;;;22.69;63.91;101544.63;5015267;28;20084;-48
2023/10/17 00:44:37;;;;;;;4.70;1.00;;;;;;;22.22;65.17;101552.97;5025404;28;20092;-48
2023/10/17 00:47:05;;;;;;;2.38;1.23;;;;;;;22.27;65.15;101555.72;5017864;28;20041;-51
2023/10/17 00:49:40;;;;;;;2.47;1.38;;;;;;;22.14;65.43;101555.09;5030612;28;20470;-50
2023/10/17 00:52:20;;;;;;;4.65;1.10;;;;;;;21.96;66.08;101549.25;5015449;28;20033;-50
2023/10/17 00:54:49;;;;;;;3.53;1.10;;;;;;;22.00;66.54;101540.28;5013161;28;20037;-50
2023/10/17 00:57:17;;;;;;;2.85;1.05;;;;;;;22.02;67.03;101546.28;5028908;28;20021;-51
2023/10/17 00:59:50;;;;;;;6.70;1.20;;;;;;;21.79;67.88;101547.53;5016500;28;20034;-52
2023/10/17 01:02:20;;;;;;;2.58;0.85;;;;;;;21.88;68.47;101545.13;5021531;28;20041;-50
2023/10/17 01:04:47;;;;;;;1.83;1.00;;;;;;;21.78;69.55;101553.25;5032700;28;20040;-51
2023/10/17 01:07:23;;;;;;;5.18;1.30;;;;;;;21.55;71.78;101565.38;5033421;28;20181;-52
2023/10/17 01:09:55;;;;;;;3.78;1.38;;;;;;;21.67;71.29;101563.25;5032435;28;20022;-51
2023/10/17 01:12:27;;;;;;;3.78;1.50;;;;;;;21.35;73.06;101566.84;5031439;28;20430;-51
2023/10/17 01:14:54;;;;;;;4.10;1.60;;;;;;;21.49;72.26;101560.97;5032183;28;20116;-49
2023/10/17 01:17:24;;;;;;;6.47;1.70;;;;;;;21.35;72.91;101561.38;5032636;28;20444;-52
2023/10/17 01:20:07;;;;;;;4.30;1.30;;;;;;;21.21;73.76;101571.06;5025587;28;20017;-51
2023/10/17 01:22:39;;;;;;;4.90;1.20;;;;;;;21.15;73.69;101572.06;5032029;28;20037;-52
2023/10/17 01:25:21;;;;;;;7.07;1.63;;;;;;;21.12;73.86;101564.44;5032233;28;20033;-50
2023/10/17 01:27:48;;;;;;;3.42;1.15;;;;;;;21.06;73.42;101563.56;5031769;28;20029;-49
2023/10/17 01:30:16;;;;;;;3.20;1.67;;;;;;;20.97;74.01;101562.38;5032200;28;20022;-49
2023/10/17 01:32:44;;;;;;;4.47;1.55;;;;;;;20.87;75.07;101564.19;5030159;28;20053;-50
2023/10/17 01:35:11;;;;;;;2.90;1.58;;;;;;;21.08;73.92;101555.97;5029095;28;20544;-56
2023/10/17 01:37:37;;;;;;;5.55;1.48;;;;;;;21.05;73.64;101555.66;5032118;28;20039;-51
2023/10/17 01:40:18;;;;;;;4.97;1.58;;;;;;;20.88;74.99;101555.78;5031547;28;20097;-54
2023/10/17 01:42:45;;;;;;;5.00;1.48;;;;;;;20.92;74.85;101556.06;5030671;28;20091;-53
2023/10/17 01:45:11;;;;;;;4.68;1.50;;;;;;;20.78;75.50;101561.13;5031621;28;20049;-56
2023/10/17 01:47:38;;;;;;;3.33;1.30;;;;;;;20.70;75.64;101553.41;5031745;28;20017;-47
2023/10/17 01:50:10;;;;;;;4.43;1.60;;;;;;;20.75;76.02;101569.78;5031987;28;20021;-48
2023/10/17 01:52:42;;;;;;;4.28;1.25;;;;;;;20.71;75.75;101569.50;5030384;28;20030;-49
2023/10/17 01:55:13;;;;;;;3.75;1.58;;;;;;;20.72;75.98;101578.47;5025149;28;20496;-48
2023/10/17 01:57:43;;;;;;;3.30;1.50;;;;;;;20.82;75.52;101581.28;5018924;28;20433;-46
2023/10/17 02:02:56;;;;;;;4.25;1.75;;;;;;;20.63;76.58;101580.81;5020177;28;20048;-58
2023/10/17 02:05:23;;;;;;;3.00;1.77;;;;;;;20.55;76.95;101581.28;5014255;28;20371;-54
2023/10/17 02:07:49;;;;;;;4.53;1.55;;;;;;;20.68;76.07;101585.50;5014528;28;20429;-56
2023/10/17 02:10:21;;;;;;;3.33;1.42;;;;;;;20.58;76.71;101586.19;5039437;28;20108;-56
2023/10/17 02:12:52;;;;;;;4.32;1.90;;;;;;;20.50;77.44;101582.03;5020691;28;20431;-54
2023/10/17 02:15:23;;;;;;;2.20;1.30;;;;;;;20.43;78.07;101584.09;5043746;28;20821;-55
2023/10/17 02:17:52;;;;;;;5.63;2.15;;;;;;;20.22;78.92;101591.19;5051450;28;20108;-51
2023/10/17 02:20:29;;;;;;;4.22;1.73;;;;;;;20.29;78.75;101580.13;5035055;28;20482;-51
2023/10/17 02:23:02;;;;;;;3.72;2.00;;;;;;;20.27;78.69;101585.81;5015743;28;20125;-51
2023/10/17 02:25:41;;;;;;;8.27;1.73;;;;;;;20.23;78.99;101581.94;5020470;28;20034;-51
2023/10/17 02:28:07;;;;;;;2.22;1.30;;;;;;;20.16;79.21;101586.75;5031791;28;20550;-51
2023/10/17 02:30:34;;;;;;;3.38;1.73;;;;;;;20.29;78.74;101580.13;5031852;28;20650;-50
2023/10/17 02:33:01;;;;;;;3.08;1.20;;;;;;;20.27;78.86;101587.72;5031334;28;20096;-52
2023/10/17 02:35:43;;;;;;;3.42;1.17;;;;;;;20.15;79.16;101595.97;5031887;28;20064;-52
2023/10/17 02:38:10;;;;;;;4.47;1.42;;;;;;;20.06;79.48;101591.22;5031742;28;20018;-52
2023/10/17 02:40:38;;;;;;;3.40;1.38;;;;;;;20.10;79.30;101586.91;5031698;28;20017;-51
2023/10/17 02:43:04;;;;;;;4.20;1.30;;;;;;;19.99;80.02;101577.81;5048827;28;20119;-52
2023/10/17 02:45:30;;;;;;;3.80;1.60;;;;;;;19.84;80.51;101583.84;5055393;28;20103;-52
2023/10/17 02:48:06;;;;;;;4.20;1.67;;;;;;;19.73;81.92;101590.22;5055090;28;20151;-51
2023/10/17 02:52:59;;;;;;;3.47;1.77;;;;;;;20.08;79.54;101579.00;5055350;28;20489;-51
2023/10/17 02:55:25;;;;;;;4.50;1.60;;;;;;;20.01;79.76;101571.06;5055250;28;20025;-50
2023/10/17 02:57:53;;;;;;;4.40;1.65;;;;;;;20.08;79.91;101587.16;5046950;28;20379;-51
2023/10/17 03:00:22;;;;;;;3.00;1.58;;;;;;;20.03;79.67;101581.66;5021951;28;20084;-51
2023/10/17 03:02:58;;;;;;;5.05;1.60;;;;;;;20.06;79.79;101583.91;5014703;28;20034;-51
2023/10/17 03:05:25;;;;;;;3.03;1.35;;;;;;;20.03;79.58;101581.66;5014887;28;20030;-52
2023/10/17 03:07:51;;;;;;;3.58;1.52;;;;;;;19.83;80.60;101579.50;5015319;28;20497;-52
2023/10/17 03:10:37;;;;;;;3.67;1.30;;;;;;;19.78;80.63;101582.13;5014863;28;20033;-52
2023/10/17 03:15:48;;;;;;;2.65;1.50;;;;;;;19.70;81.08;101587.97;5034679;28;20026;-52
2023/10/17 03:18:16;;;;;;;2.30;1.38;;;;;;;19.64;80.90;101581.66;5016279;28;20398;-52
2023/10/17 03:20:50;;;;;;;4.05;1.55;;;;;;;19.68;80.71;101587.41;5014741;28;20049;-51
2023/10/17 03:23:18;;;;;;;5.00;2.05;;;;;;;19.68;81.23;101592.84;5014381;28;20026;-51
2023/10/17 03:25:46;;;;;;;4.97;2.05;;;;;;;19.57;81.26;101589.13;5014992;28;20377;-51
2023/10/17 03:28:15;;;;;;;3.72;1.75;;;;;;;19.51;81.58;101584.69;5014418;28;20057;-50
2023/10/17 03:30:43;;;;;;;2.72;1.50;;;;;;;19.48;81.88;101587.88;5014601;28;20390;-51
2023/10/17 03:33:14;;;;;;;3.70;1.77;;;;;;;19.46;81.84;101582.69;5014007;28;20053;-51
2023/10/17 03:36:04;;;;;;;6.50;1.88;;;;;;;19.65;81.16;101596.88;5014790;28;20060;-51
2023/10/17 03:38:33;;;;;;;2.95;1.67;;;;;;;19.56;81.10;101601.06;5014491;28;20069;-51
2023/10/17 03:41:06;;;;;;;3.10;1.77;;;;;;;19.43;81.35;101599.50;5044113;28;20439;-52
2023/10/17 03:43:39;;;;;;;2.38;1.70;;;;;;;19.46;81.09;101598.16;5054264;28;20311;-51
2023/10/17 03:46:06;;;;;;;4.00;1.58;;;;;;;19.34;81.27;101600.16;5054182;28;20377;-51
2023/10/17 03:48:37;;;;;;;1.88;1.48;;;;;;;19.25;81.81;101608.69;5054178;28;20028;-52
2023/10/17 03:53:36;;;;;;;2.60;1.75;;;;;;;19.20;81.82;101603.16;5037822;28;20083;-51
2023/10/17 03:56:04;;;;;;;2.95;2.00;;;;;;;19.20;81.68;101605.88;5013303;28;20029;-51
2023/10/17 04:01:06;;;;;;;4.75;1.85;;;;;;;19.29;81.88;101602.78;5053701;28;20029;-51
2023/10/17 04:03:34;;;;;;;3.50;1.67;;;;;;;19.24;82.51;101603.50;5053335;28;20041;-52
2023/10/17 04:06:02;;;;;;;2.88;1.42;;;;;;;19.20;82.71;101603.16;5053560;28;20029;-52
2023/10/17 04:08:37;;;;;;;4.32;1.75;;;;;;;19.09;83.13;101604.03;5053573;28;20033;-52
2023/10/17 04:13:57;;;;;;;3.70;1.60;;;;;;;18.98;83.77;101604.94;5053511;28;20031;-52
2023/10/17 04:16:34;;;;;;;3.67;1.67;;;;;;;18.95;83.89;101603.53;5053564;28;20036;-51
2023/10/17 04:19:04;;;;;;;3.50;1.35;;;;;;;18.91;84.22;101602.38;5053453;28;20262;-52
2023/10/17 04:24:07;;;;;;;3.47;1.52;;;;;;;18.84;84.17;101606.31;5053292;28;20075;-52
2023/10/17 04:26:42;;;;;;;3.35;1.67;;;;;;;18.80;85.09;101603.25;5053382;28;20025;-52
2023/10/17 04:29:43;;;;;;;4.90;1.80;;;;;;;18.73;85.12;101606.09;5052990;28;20076;-51
2023/10/17 04:32:05;;;;;;;2.20;1.80;;;;;;;18.85;83.92;101608.78;5048828;28;20041;-52
2023/10/17 04:34:44;;;;;;;3.10;1.90;;;;;;;18.92;83.66;101608.63;5052257;28;20025;-52
2023/10/17 04:37:16;;;;;;;3.42;2.05;;;;;;;18.82;83.98;101617.41;5052568;28;20576;-53
2023/10/17 04:39:50;;;;;;;4.68;1.77;;;;;;;18.84;84.47;101614.44;5053004;28;20032;-52
2023/10/17 04:42:35;;;;;;;3.45;1.92;;;;;;;18.75;84.73;101614.00;5052855;28;20600;-52
2023/10/17 04:45:06;;;;;;;1.65;1.40;;;;;;;18.75;84.72;101607.75;5052508;28;20492;-52
2023/10/17 04:47:32;;;;;;;3.38;1.50;;;;;;;18.71;85.50;101605.53;5051092;28;20420;-52
2023/10/17 04:49:59;;;;;;;3.25;1.30;;;;;;;18.59;86.51;101620.16;5052732;28;20025;-50
2023/10/17 04:52:40;;;;;;;1.83;1.27;;;;;;;18.59;86.31;101618.25;5052525;28;20025;-50
2023/10/17 04:55:30;;;;;;;2.10;1.20;;;;;;;18.55;86.69;101619.81;5037905;28;20461;-50
2023/10/17 04:57:59;;;;;;;3.88;1.40;;;;;;;18.39;89.22;101615.97;5052671;28;20104;-52
2023/10/17 05:01:12;;;;;;;2.10;1.38;;;;;;;18.47;88.68;101612.03;5052486;28;20508;-52
2023/10/17 05:03:43;;;;;;;1.80;1.10;;;;;;;18.45;88.31;101604.16;5051536;28;20032;-50
2023/10/17 06:17:23;;;;;;;4.10;1.00;;;;;;;17.30;91.20;101571.44;5053691;28;20397;-53
2023/10/17 06:19:49;;;;;;;;;;;;;;;17.36;90.75;101573.22;5076656;28;20044;-51
2023/10/17 06:24:45;;;;;;;1.40;1.00;;;;;;;17.25;89.92;101571.31;5074297;28;20558;-51
2023/10/17 06:32:48;;;;;;;;;;;;;;;17.06;91.21;101581.41;5075921;28;20074;-52
2023/10/17 06:35:22;;;;;;;2.88;2.13;;;;;;;17.10;90.72;101580.72;5075509;28;20294;-52
2023/10/17 06:37:49;;;;;;;3.15;1.70;;;;;;;17.11;90.18;101578.81;5067462;28;20029;-50
2023/10/17 06:40:16;;;;;;;2.30;1.70;;;;;;;17.12;90.37;101570.47;5037617;28;20037;-50
2023/10/17 06:42:59;;;;;;;2.05;1.40;;;;;;;17.08;90.87;101571.16;5054749;28;20029;-51
2023/10/17 06:45:26;;;;;;;1.02;0.90;;;;;;;17.14;90.42;101576.47;5055137;28;20079;-49
2023/10/17 06:47:58;;;;;;;1.40;1.08;;;;;;;17.12;90.01;101567.75;5055086;28;20028;-51
2023/10/17 06:53:18;;;;;;;1.48;0.95;;;;;;;16.99;91.57;101557.16;5023514;28;20032;-51
2023/10/17 06:55:47;;;;;;;1.52;0.73;;;;;;;17.22;90.16;101566.38;5054966;28;20515;-50
2023/10/17 06:58:14;;;;;;;1.25;0.70;;;;;;;17.10;89.96;101569.03;5055057;28;20025;-50
2023/10/17 07:03:13;;;;;;;3.05;1.08;;;;;;;16.77;91.69;101567.66;5065364;28;20044;-51
2023/10/17 07:05:39;;;;;;;3.63;1.05;;;;;;;16.79;92.05;101575.53;5074763;28;20016;-51
2023/10/17 07:08:13;;;;;;;1.30;0.90;;;;;;;16.94;90.80;101565.13;5074692;28;20035;-51
2023/10/17 07:10:53;;;;;;;1.30;0.83;;;;;;;16.87;91.27;101573.31;5074554;28;20037;-49
2023/10/17 07:13:56;;;;;;;1.90;0.85;;;;;;;16.98;90.94;101566.31;5074592;28;20036;-53
2023/10/17 07:16:27;;;;;;;1.65;1.30;;;;;;;17.06;90.72;101567.88;5074506;28;20495;-52
2023/10/17 07:18:55;;;;;;;1.80;1.17;;;;;;;16.96;91.02;101564.91;5066132;28;20111;-51
2023/10/17 07:21:24;;;;;;;1.73;0.95;;;;;;;16.87;91.37;101553.56;5054166;28;20500;-51
2023/10/17 07:24:00;;;;;;;3.92;1.77;;;;;;;16.89;91.62;101554.19;5054631;28;20033;-50
2023/10/17 07:28:56;;;;;;;7.38;2.42;;;;;;;16.80;93.74;101566.38;5053688;28;20017;-50
2023/10/17 07:31:23;;;;;;;4.43;2.20;;;;;;;16.85;95.91;101563.81;5053350;28;20100;-52
2023/10/17 07:34:37;;;;;;;4.20;1.50;;;;;;;16.67;97.23;101564.66;5054015;28;20071;-49
2023/10/17 07:36:38;;;;;;;3.28;1.80;;;;;;;16.82;96.13;101561.53;5039943;28;20375;-52
2023/10/17 07:39:15;;;;;;;5.13;1.95;;;;;;;16.77;96.64;101566.84;5053675;28;20032;-52
2023/10/17 07:41:52;;;;;;;4.45;2.00;;;;;;;16.80;96.20;101560.97;5033779;28;20048;-52
2023/10/17 07:44:19;;;;;;;6.72;2.17;;;;;;;16.78;96.54;101571.19;5034102;28;20029;-51
2023/10/17 07:46:48;;;;;;;4.85;1.95;;;;;;;16.76;96.80;101574.09;5034007;28;20095;-52
2023/10/17 07:49:18;;;;;;;5.47;2.58;;;;;;;16.68;97.42;101570.88;5034185;28;20033;-52
2023/10/17 07:51:44;;;;;;;9.85;2.35;;;;;;;16.73;97.63;101568.34;5033967;28;20030;-51
2023/10/17 07:54:16;;;;;;;5.22;2.22;;;;;;;16.98;97.72;101560.91;5033999;28;20049;-52
2023/10/17 07:56:50;;;;;;;5.22;2.63;;;;;;;16.98;97.96;101555.47;5033887;28;20025;-52
2023/10/17 07:59:18;;;;;;;5.95;2.33;;;;;;;16.96;98.40;101559.50;5033785;28;20046;-53
2023/10/17 08:01:50;;;;;;;6.65;2.80;;;;;;;16.91;98.83;101554.75;5033139;28;20044;-49
2023/10/17 08:06:46;;;;;;;5.05;2.67;;;;;;;16.89;99.74;101543.38;5053706;28;20017;-51
2023/10/17 08:11:52;;;;;;;6.03;3.35;;;;;;;16.82;100.00;101550.72;5053446;28;20059;-49
2023/10/17 08:14:22;;;;;;;4.97;3.60;;;;;;;16.67;100.00;101553.00;5052350;28;20025;-49
2023/10/17 08:16:54;;;;;;;9.20;4.47;;;;;;;16.50;100.00;101548.25;5042816;28;20040;-49
2023/10/17 08:19:29;;;;;;;9.07;5.15;;;;;;;16.50;100.00;101545.53;5053594;28;20047;-51
2023/10/17 08:24:40;;;;;;;9.32;6.15;;;;;;;16.45;100.00;101550.81;5033244;28;20040;-50
2023/10/17 08:27:13;;;;;;;8.48;5.43;;;;;;;16.56;100.00;101552.72;5033222;28;20025;-49
2023/10/17 08:29:45;;;;;;;9.43;4.78;;;;;;;16.53;100.00;101560.47;5033284;28;20040;-52
2023/10/17 08:34:48;;;;;;;9.30;5.15;;;;;;;16.42;100.00;101556.66;5053152;28;20021;-52
2023/10/17 08:37:19;;;;;;;6.32;4.22;;;;;;;16.55;100.00;101564.59;5052919;28;20430;-50
2023/10/17 08:42:18;;;;;;;5.55;3.55;;;;;;;16.56;100.00;101560.03;5052095;28;20029;-52
2023/10/17 08:44:47;;;;;;;8.32;4.32;;;;;;;16.52;100.00;101561.53;5053002;28;20082;-52
2023/10/17 08:47:18;;;;;;;6.68;4.38;;;;;;;16.77;100.00;101559.56;5053009;28;20036;-52
2023/10/17 08:49:45;;;;;;;8.57;4.80;;;;;;;16.58;100.00;101563.31;5052747;28;20044;-50
2023/10/17 08:52:27;;;;;;;6.10;3.47;;;;;;;16.53;100.00;101572.09;5052529;28;20068;-49
2023/10/17 08:54:54;;;;;;;6.47;3.20;;;;;;;16.16;100.00;101567.75;5052898;28;20033;-50
2023/10/17 08:57:21;;;;;;;6.50;3.00;;;;;;;16.00;100.00;101571.91;5052737;28;20495;-51
2023/10/17 09:02:15;;;;;;;6.28;3.88;;;;;;;16.19;100.00;101575.44;5053426;28;20112;-49
2023/10/17 09:04:44;;;;;;;4.88;3.78;;;;;;;16.44;100.00;101569.94;5072389;28;20036;-53
2023/10/17 09:07:19;;;;;;;6.75;4.05;;;;;;;16.57;100.00;101572.47;5072508;28;20082;-53
2023/10/17 09:09:54;;;;;;;8.90;4.20;;;;;;;16.77;100.00;101566.84;5072024;28;20029;-52
2023/10/17 09:12:29;;;;;;;7.05;4.40;;;;;;;16.76;100.00;101567.88;5072106;28;20377;-50
2023/10/17 09:14:59;;;;;;;5.72;4.43;;;;;;;16.63;100.00;101575.09;5072196;28;20488;-49
2023/10/17 09:19:52;;;;;;;8.88;5.57;;;;;;;16.64;100.00;101581.31;5052154;28;20032;-52
2023/10/17 09:22:43;;;;;;;8.75;5.57;;;;;;;16.69;100.00;101586.03;5052072;28;20060;-50
2023/10/17 09:25:22;;;;;;;7.72;6.03;;;;;;;16.77;100.00;101580.38;5052134;28;20025;-52
2023/10/17 09:27:51;;;;;;;8.25;6.03;;;;;;;16.84;100.00;101575.69;5051918;28;20531;-49
2023/10/17 09:30:17;;;;;;;11.30;6.03;;;;;;;16.93;100.00;101576.16;5052132;28;20021;-51
2023/10/17 09:32:44;;;;;;;8.95;6.50;;;;;;;16.87;100.00;101570.63;5051209;28;20116;-51
2023/10/17 09:35:15;;;;;;;8.73;6.85;;;;;;;16.88;100.00;101576.88;5051710;28;20025;-52
2023/10/17 09:37:52;;;;;;;10.70;6.82;;;;;;;16.80;100.00;101578.00;5051739;28;20025;-52
2023/10/17 09:40:30;;;;;;;7.68;6.18;;;;;;;16.86;100.00;101574.38;5051840;28;20029;-49
2023/10/17 09:42:58;;;;;;;8.32;6.18;;;;;;;16.85;100.00;101570.03;5051828;28;20090;-52
2023/10/17 09:45:31;;;;;;;16.15;8.52;;;;;;;16.64;100.00;101568.63;5051293;28;20028;-49
2023/10/17 09:48:04;;;;;;;8.23;4.68;;;;;;;16.24;100.00;101567.47;5051531;28;20035;-53
2023/10/17 09:50:37;;;;;;;7.22;4.43;;;;;;;15.93;100.00;101569.25;5051094;28;20028;-49
2023/10/17 09:53:16;;;;;;;11.35;5.90;;;;;;;15.98;100.00;101569.41;5046978;28;20028;-51
2023/10/17 09:55:48;;;;;;;6.13;4.13;;;;;;;16.24;100.00;101564.78;5031611;28;20056;-51
2023/10/17 09:58:28;;;;;;;8.15;5.85;;;;;;;16.43;100.00;101563.69;5031751;28;20049;-49
2023/10/17 10:01:13;;;;;;;11.45;8.00;;;;;;;16.39;100.00;101564.41;5031154;28;20042;-51
2023/10/17 10:03:41;;;;;;;12.60;7.57;;;;;;;16.40;100.00;101558.75;5045329;28;20037;-50
2023/10/17 10:06:25;;;;;;;7.25;5.63;;;;;;;16.30;100.00;101567.41;5033404;28;20466;-53
2023/10/17 10:08:56;;;;;;;8.45;5.85;;;;;;;16.37;100.00;101559.19;5038745;28;20031;-50
2023/10/17 10:11:48;;;;;;;10.98;7.25;;;;;;;16.48;100.00;101561.13;5051612;28;20029;-52
2023/10/17 10:14:15;;;;;;;11.48;7.35;;;;;;;16.51;100.00;101554.47;5051425;28;20163;-53
2023/10/17 10:16:55;;;;;;;5.47;3.70;;;;;;;15.71;100.00;101560.78;5051654;28;20025;-52
2023/10/17 10:19:22;;;;;;;5.43;3.63;;;;;;;15.82;100.00;101557.34;5051435;28;20071;-52
2023/10/17 10:21:58;;;;;;;4.25;3.15;;;;;;;15.62;100.00;101556.66;5057948;28;20123;-49
2023/10/17 10:24:30;;;;;;;5.72;3.10;;;;;;;15.65;100.00;101560.81;5071364;28;20031;-52
2023/10/17 10:27:19;;;;;;;8.90;4.30;;;;;;;15.94;100.00;101548.50;5071628;28;20017;-52
2023/10/17 10:29:52;;;;;;;8.77;5.60;;;;;;;16.00;100.00;101553.00;5070999;28;20492;-52
2023/10/17 10:32:35;;;;;;;13.02;7.38;;;;;;;15.67;100.00;101556.03;5070994;28;20020;-53
2023/10/17 10:35:05;;;;;;;13.10;5.30;;;;;;;16.15;100.00;101555.31;5066513;28;20061;-52
2023/10/17 10:37:48;;;;;;;11.40;5.25;;;;;;;15.92;100.00;101556.81;5051318;28;20025;-50
2023/10/17 10:40:17;;;;;;;9.57;4.78;;;;;;;15.96;100.00;101562.59;5054373;28;20186;-52
2023/10/17 10:42:50;;;;;;;10.13;4.50;;;;;;;15.62;100.00;101566.66;5071162;28;20029;-50
2023/10/17 10:45:35;;;;;;;12.15;5.90;;;;;;;16.04;100.00;101560.41;5071416;28;20059;-53
2023/10/17 10:48:14;;;;;;;9.20;5.72;;;;;;;15.66;100.00;101571.41;5071280;28;20024;-53
2023/10/17 10:50:42;;;;;;;9.10;5.70;;;;;;;15.52;100.00;101567.97;5070845;28;20036;-52
2023/10/17 10:53:39;;;;;;;9.85;5.28;;;;;;;15.52;100.00;101567.97;5061201;28;20029;-53
2023/10/17 10:56:11;;;;;;;6.65;4.30;;;;;;;15.53;100.00;101564.22;5031076;28;20038;-51
2023/10/17 10:58:51;;;;;;;7.45;4.72;;;;;;;15.74;100.00;101564.91;5049170;28;20030;-52
2023/10/17 11:01:21;;;;;;;8.25;4.97;;;;;;;15.72;100.00;101572.41;5050925;28;20056;-52
2023/10/17 11:03:49;;;;;;;8.80;5.72;;;;;;;15.33;100.00;101574.38;5063678;28;20358;-49
2023/10/17 11:06:29;;;;;;;8.23;5.10;;;;;;;15.37;100.00;101575.56;5074391;28;20024;-53
2023/10/17 11:08:55;;;;;;;5.50;3.80;;;;;;;15.61;100.00;101570.41;5074689;28;20020;-52
2023/10/17 11:11:22;;;;;;;4.57;2.80;;;;;;;15.58;100.00;101575.16;5074356;28;20555;-51
2023/10/17 11:13:50;;;;;;;5.03;3.38;;;;;;;15.59;100.00;101571.41;5074345;28;20024;-51
2023/10/17 11:16:17;;;;;;;2.17;1.52;;;;;;;15.38;100.00;101577.22;5074269;28;20489;-52
2023/10/17 11:18:44;;;;;;;2.05;1.58;;;;;;;15.41;100.00;101571.38;5074277;28;20056;-52
2023/10/17 11:21:11;;;;;;;3.35;1.58;;;;;;;15.01;100.00;101574.38;5074241;28;20032;-51
2023/10/17 11:23:41;;;;;;;4.50;2.42;;;;;;;15.13;100.00;101577.19;5071657;28;20020;-53
2023/10/17 11:26:14;;;;;;;1.92;1.63;;;;;;;15.30;100.00;101572.09;5053913;28;20028;-51
2023/10/17 11:28:46;;;;;;;2.78;2.05;;;;;;;15.23;100.00;101569.44;5054482;28;20467;-53
2023/10/17 11:31:24;;;;;;;1.17;1.00;;;;;;;15.26;100.00;101566.28;5057633;28;20036;-49
2023/10/17 11:33:55;;;;;;;3.15;1.35;;;;;;;15.30;99.70;101569.41;5065934;28;20170;-49
2023/10/17 11:36:22;;;;;;;3.08;1.20;;;;;;;15.26;99.29;101563.59;5067016;28;20085;-53
2023/10/17 11:39:03;;;;;;;1.10;0.77;;;;;;;15.37;98.05;101580.13;5063929;28;20025;-50
2023/10/17 11:41:39;;;;;;;1.85;0.90;;;;;;;15.24;98.04;101560.31;5053675;28;20064;-53
2023/10/17 11:44:09;;;;;;;1.80;0.88;;;;;;;15.26;97.46;101565.47;5053924;28;20032;-50
2023/10/17 11:46:39;;;;;;;1.45;0.77;;;;;;;15.24;97.24;101556.78;5054243;28;20068;-51
2023/10/17 11:49:28;;;;;;;0.75;0.73;;;;;;;15.18;97.08;101563.88;5057760;28;20028;-49
2023/10/17 11:52:18;;;;;;;1.25;0.70;;;;;;;15.18;96.69;101558.50;5055489;28;20098;-49
2023/10/17 11:55:00;;;;;;;1.10;0.68;;;;;;;15.17;96.53;101554.16;5055495;23;20048;-56
2023/10/17 11:57:29;;;;;;;2.08;0.73;;;;;;;15.11;96.46;101554.19;5114043;28;20028;-52
2023/10/17 11:59:58;;;;;;;0.88;0.60;;;;;;;15.08;96.62;101560.00;5091260;28;20445;-52
2023/10/17 12:02:26;;;;;;;1.98;0.85;;;;;;;15.05;96.68;101558.59;5093212;28;20396;-51
2023/10/17 12:04:53;;;;;;;0.93;0.60;;;;;;;15.01;96.37;101566.28;5093446;28;20024;-52
2023/10/17 12:07:19;;;;;;;1.73;0.90;;;;;;;14.69;98.47;101565.44;5093720;28;20028;-50
2023/10/17 12:09:46;;;;;;;1.38;0.80;;;;;;;14.82;97.58;101572.59;5093440;28;20383;-51
2023/10/17 12:12:12;;;;;;;1.25;0.80;;;;;;;14.83;97.35;101560.00;5088564;28;20024;-52
2023/10/17 12:14:38;;;;;;;1.05;0.73;;;;;;;14.91;96.70;101555.16;5092665;28;20403;-52
2023/10/17 12:17:08;;;;;;;2.08;0.88;;;;;;;14.75;97.40;101559.19;5091879;28;20032;-51
2023/10/17 12:19:34;;;;;;;1.17;0.63;;;;;;;14.74;97.74;101554.00;5093331;28;20553;-52
2023/10/17 12:22:00;;;;;;;1.05;0.70;;;;;;;14.80;97.39;101561.22;5089489;28;20464;-52
2023/10/17 12:25:09;;;;;;;1.15;0.60;;;;;;;14.83;96.78;101562.69;5093182;28;20036;-51
2023/10/17 12:27:16;;;;;;;1.20;0.60;;;;;;;14.79;96.76;101562.28;5084798;28;20407;-49
2023/10/17 12:29:44;;;;;;;0.73;0.60;;;;;;;14.77;96.68;101558.97;5093346;28;20058;-51
2023/10/17 12:32:13;;;;;;;0.88;0.68;;;;;;;14.79;96.98;101555.00;5092879;28;20077;-52
2023/10/17 12:34:42;;;;;;;2.95;0.70;;;;;;;14.83;96.98;101557.28;5093957;28;20039;-51
2023/10/17 12:37:11;;;;;;;0.90;0.70;;;;;;;14.83;97.29;101554.59;5084712;28;20033;-50
2023/10/17 12:39:40;;;;;;;1.15;0.70;;;;;;;14.83;96.87;101563.50;5087803;28;20020;-51
2023/10/17 12:42:06;;;;;;;2.00;0.70;;;;;;;14.78;96.56;101564.16;5092740;28;20541;-50
2023/10/17 12:44:32;;;;;;;0.70;0.52;;;;;;;14.74;96.78;101576.41;5092919;28;20047;-51
2023/10/17 12:46:59;;;;;;;1.23;0.70;;;;;;;14.74;96.36;101575.56;5092447;28;20023;-50
2023/10/17 12:49:27;;;;;;;1.45;0.60;;;;;;;14.74;95.95;101570.19;5091989;28;20385;-48
2023/10/17 12:51:53;;;;;;;1.45;0.70;;;;;;;14.72;96.04;101569.59;5088394;28;20055;-50
2023/10/17 12:54:20;;;;;;;0.93;0.68;;;;;;;14.77;95.65;101565.19;5084401;28;20016;-49
2023/10/17 12:56:46;;;;;;;1.35;0.77;;;;;;;14.68;95.54;101561.09;5091834;28;20031;-52
2023/10/17 12:59:12;;;;;;;0.82;0.70;;;;;;;14.64;95.88;101561.72;5092559;28;20028;-48
2023/10/17 13:01:43;;;;;;;0.80;0.77;;;;;;;14.38;98.30;101559.94;5092206;28;20102;-45
2023/10/17 13:04:10;;;;;;;1.17;0.60;;;;;;;14.71;95.99;101554.44;5091806;28;20361;-48
2023/10/17 13:06:41;;;;;;;2.30;1.00;;;;;;;14.63;96.36;101555.53;5092144;28;20024;-49
2023/10/17 13:09:08;;;;;;;2.10;1.50;;;;;;;14.83;95.99;101551.91;5090344;28;20027;-45
2023/10/17 13:11:34;;;;;;;4.18;3.10;;;;;;;14.92;96.70;101554.09;5090561;28;20061;-49
2023/10/17 13:14:00;;;;;;;4.78;2.97;;;;;;;14.67;97.92;101561.31;5092247;28;20028;-46
2023/10/17 13:16:29;;;;;;;4.60;3.20;;;;;;;14.71;98.52;101554.44;5092479;28;20067;-45
2023/10/17 13:18:56;;;;;;;3.38;3.08;;;;;;;14.74;99.44;101554.84;5092582;28;20050;-46
2023/10/17 13:21:23;;;;;;;6.85;4.88;;;;;;;14.61;100.00;101552.22;5091785;28;20384;-52
2023/10/17 13:23:50;;;;;;;7.72;6.07;;;;;;;14.56;100.00;101554.72;5092169;28;20070;-49
2023/10/17 13:26:19;;;;;;;6.40;5.05;;;;;;;14.63;100.00;101557.38;5092415;28;20044;-47
2023/10/17 13:28:45;;;;;;;8.77;6.63;;;;;;;14.54;100.00;101556.78;5091604;28;20039;-50
2023/10/17 13:31:14;;;;;;;6.43;4.90;;;;;;;14.72;100.00;101554.22;5091728;28;20032;-47
2023/10/17 13:33:49;;;;;;;7.80;4.93;;;;;;;14.71;100.00;101554.44;5092141;28;20039;-53
2023/10/17 13:36:20;;;;;;;9.32;5.50;;;;;;;14.58;100.00;101551.81;5088339;28;20024;-49
2023/10/17 13:38:46;;;;;;;8.13;4.93;;;;;;;14.74;100.00;101559.41;5091208;28;20067;-48
2023/10/17 13:41:15;;;;;;;8.85;5.32;;;;;;;14.76;100.00;101551.91;5091023;28;20107;-51
2023/10/17 13:43:43;;;;;;;8.18;5.20;;;;;;;14.83;100.00;101555.41;5073268;28;20043;-45
2023/10/17 13:46:13;;;;;;;8.68;5.22;;;;;;;14.79;100.00;101556.88;5091399;28;20114;-45
2023/10/17 13:48:49;;;;;;;8.05;5.60;;;;;;;14.82;100.00;101552.91;5091066;28;20028;-46
2023/10/17 13:51:17;;;;;;;8.07;5.35;;;;;;;14.83;100.00;101563.50;5091265;28;20024;-46